עמוד ראשי
METAR-TAF:

METAR-TAF

שדות תעופה :

צ'יצ'ן איצה, מקסיקו

קו רוחב: 20-38-30N, קו אורך: 088-26-58W, גובה: 31מטר

תצפית מזג אוויר נוכחית

הדו"ח נערך לפני 44דקות, בשעה 20:49 UTC
רוח רגועה
טמפרטורת 29 צלסיוס
לחות 89%
לחץ 1008 hPa
ראות: 4.8קילומטר
מעונן בגובה 1500רגל
גשם קל

METAR: MMCT 142049Z 00000KT 3SM -RA OVC015 29/27 A2978 RMK 8/7// RAB37

זמן: 16:33 (21:33 UTC)


TAF: חסר

תצפיות ותחזיות מזג אוויר לגבי יותר מ- 4,000 שדות תעופה ברחבי העולם. דוחות METAR ו- TAF.

התחנות הזמינות מסומנות בנקודות צהובות ואדומות על גבי המפה.

העבר את העכבר לנקודה הצבעונית על מנת לראות את שם התחנה.

לאחר מכן, לחץ כדי לראות את תוכן ואת תחזיות מזג האוויר.

כדי לשנות את המפה: לחץ על הכפתורים הירוקים עם הפלוס השחור כדי להתקרב; על הכפתור הירוק עם המקף כדי להתרחק; או בחיצים הירוקים למפות סמוכות.


METAR-TAF: